9.7°F
Current conditions from King Hill
Updated every 5 minutes
 
  Friday December 19, 2014

Station Historical Data
Daily Summary for May 10, 2011 Units:  Metric    English   Both
« Previous Day
Next Day »
Daily Weekly Monthly Yearly Custom
  High: Low: Average:
Temperature: 18.8 °C 2.4 °C 11.1 °C
Dew Point: 7.8 °C -6.3 °C 2.1 °C
Humidity: 72% 37% 55%
Wind Speed: 16.1km/h 1.6km/h 6.1km/h
Wind Gust: 33.8km/h - -
Wind- - SSE
Pressure: 1019.5 hPa 1016.5 hPa -
Precipitation: 0 mm    
Historical Graphs
 
 
Tabular Data for May 10, 2011
Time Temperature Dew Point Pressure Wind Wind Speed Wind Gust Humidity Daily Rainfall
00:04 7.7 °C -5.8 °C 1016.8 hPa North 1.6 km/h 11.3 km/h 38% 0 mm
00:10 7.6 °C -4.8 °C 1016.8 hPa Calm   11.3 km/h 41% 0 mm
00:14 7.5 °C -6.3 °C 1016.8 hPa NNE 1.6 km/h 8 km/h 37% 0 mm
00:19 7.5 °C -5.9 °C 1016.8 hPa NE 1.6 km/h 11.3 km/h 38% 0 mm
00:25 7.7 °C -5.8 °C 1017.2 hPa Calm   11.3 km/h 38% 0 mm
00:29 7.6 °C -5.1 °C 1017.2 hPa Calm   9.7 km/h 40% 0 mm
00:34 7.6 °C -6.2 °C 1017.2 hPa NNE 3.2 km/h 12.9 km/h 37% 0 mm
00:40 7.6 °C -5.8 °C 1017.2 hPa Calm   12.9 km/h 38% 0 mm
00:44 7.4 °C -4.9 °C 1017.2 hPa Calm   8 km/h 41% 0 mm
00:50 7.2 °C -5.5 °C 1017.2 hPa Calm   3.2 km/h 40% 0 mm
00:54 7 °C -5.1 °C 1017.2 hPa Calm   3.2 km/h 42% 0 mm
00:59 6.8 °C -4.6 °C 1017.2 hPa Calm   1.6 km/h 44% 0 mm
01:04 6.5 °C -5.2 °C 1017.2 hPa Calm   3.2 km/h 43% 0 mm
01:10 6.4 °C -3.2 °C 1017.2 hPa Calm   3.2 km/h 50% 0 mm
01:14 6.3 °C -4.4 °C 1017.5 hPa Calm   1.6 km/h 46% 0 mm
01:20 6.1 °C -4.7 °C 1017.5 hPa Calm   4.8 km/h 46% 0 mm
01:24 5.9 °C -4.2 °C 1017.2 hPa Calm   4.8 km/h 48% 0 mm
01:30 5.8 °C -3.8 °C 1017.2 hPa Calm   1.6 km/h 50% 0 mm
01:35 5.8 °C -4.4 °C 1017.2 hPa Calm   1.6 km/h 48% 0 mm
01:39 5.6 °C -4.3 °C 1017.5 hPa Calm   1.6 km/h 49% 0 mm
01:44 5.6 °C -4.9 °C 1017.2 hPa Calm   1.6 km/h 47% 0 mm
01:50 5.5 °C -4.1 °C 1017.2 hPa Calm   4.8 km/h 50% 0 mm
01:54 5.4 °C -3.4 °C 1017.2 hPa Calm   4.8 km/h 53% 0 mm
01:59 5.6 °C -3.7 °C 1016.8 hPa East 1.6 km/h 6.4 km/h 51% 0 mm
02:04 5.7 °C -3.9 °C 1016.8 hPa Calm   6.4 km/h 50% 0 mm
02:10 5.8 °C -4.7 °C 1016.8 hPa Calm   3.2 km/h 47% 0 mm
02:14 5.8 °C -4.1 °C 1016.8 hPa Calm   3.2 km/h 49% 0 mm
02:19 5.7 °C -4.2 °C 1016.8 hPa ENE 1.6 km/h 6.4 km/h 49% 0 mm
02:24 5.6 °C -3.6 °C 1016.8 hPa Calm   6.4 km/h 52% 0 mm
02:30 5.3 °C -3.7 °C 1016.8 hPa Calm   1.6 km/h 52% 0 mm
02:35 4.9 °C -3.3 °C 1016.5 hPa Calm   1.6 km/h 55% 0 mm
02:45 4.8 °C -3.3 °C 1016.5 hPa Calm   6.4 km/h 56% 0 mm
02:49 4.7 °C -3.3 °C 1016.5 hPa Calm   4.8 km/h 56% 0 mm
02:54 4.7 °C -3.6 °C 1016.5 hPa Calm   4.8 km/h 55% 0 mm
02:59 4.6 °C -3.9 °C 1016.5 hPa Calm   3.2 km/h 54% 0 mm
03:05 4.6 °C -3.9 °C 1016.5 hPa Calm   3.2 km/h 54% 0 mm
03:09 4.7 °C -3.4 °C 1016.5 hPa Calm   3.2 km/h 56% 0 mm
03:14 4.6 °C -3.4 °C 1016.5 hPa Calm     56% 0 mm
03:19 4.3 °C -3.4 °C 1016.5 hPa Calm     57% 0 mm
03:24 4.2 °C -2.9 °C 1016.5 hPa Calm     60% 0 mm
03:29 4.1 °C -2.8 °C 1016.5 hPa Calm   1.6 km/h 61% 0 mm
03:34 4 °C -3.1 °C 1016.8 hPa Calm   1.6 km/h 60% 0 mm
03:39 3.8 °C -3.2 °C 1016.8 hPa Calm     60% 0 mm
03:44 3.8 °C -2.8 °C 1016.8 hPa Calm     62% 0 mm
03:49 3.9 °C -2.9 °C 1016.8 hPa Calm     61% 0 mm
03:54 3.9 °C -2.9 °C 1016.8 hPa Calm   1.6 km/h 61% 0 mm
03:59 4 °C -2.8 °C 1017.2 hPa Calm   1.6 km/h 61% 0 mm
04:04 3.9 °C -2.7 °C 1017.2 hPa Calm     62% 0 mm
04:10 3.8 °C -2.2 °C 1017.2 hPa Calm   1.6 km/h 65% 0 mm
04:14 3.6 °C -2.3 °C 1017.2 hPa Calm   1.6 km/h 65% 0 mm
04:19 3.5 °C -2.7 °C 1017.2 hPa Calm   1.6 km/h 64% 0 mm
04:25 3.4 °C -3 °C 1017.2 hPa Calm     63% 0 mm
04:29 3.4 °C -2.7 °C 1017.2 hPa Calm     64% 0 mm
04:35 3.4 °C -2.5 °C 1017.2 hPa Calm     65% 0 mm
04:40 3.3 °C -2.6 °C 1017.2 hPa Calm     65% 0 mm
04:44 3.4 °C -2.6 °C 1017.5 hPa Calm     65% 0 mm
04:49 3.3 °C -2.4 °C 1017.5 hPa Calm     66% 0 mm
04:54 3.3 °C -2.4 °C 1017.5 hPa Calm     66% 0 mm
04:59 3.3 °C -2.7 °C 1017.5 hPa Calm   3.2 km/h 65% 0 mm
05:05 3.2 °C -2.8 °C 1017.5 hPa Calm   3.2 km/h 65% 0 mm
05:09 3 °C -2.7 °C 1017.8 hPa Calm   1.6 km/h 66% 0 mm
05:15 2.8 °C -2.7 °C 1017.8 hPa Calm   1.6 km/h 67% 0 mm
05:19 2.9 °C -2.6 °C 1017.8 hPa Calm   1.6 km/h 67% 0 mm
05:24 2.8 °C -2.5 °C 1017.8 hPa Calm   1.6 km/h 68% 0 mm
05:29 2.7 °C -2.7 °C 1017.8 hPa Calm     68% 0 mm
05:34 2.4 °C -2.8 °C 1018.2 hPa Calm     68% 0 mm
05:39 2.4 °C -2.7 °C 1018.2 hPa Calm     69% 0 mm
05:44 2.6 °C -2.4 °C 1018.2 hPa Calm   1.6 km/h 70% 0 mm
05:49 2.6 °C -2.1 °C 1018.5 hPa Calm   1.6 km/h 71% 0 mm
05:55 2.7 °C -2.3 °C 1018.5 hPa Calm   3.2 km/h 70% 0 mm
06:04 2.7 °C -2.4 °C 1018.5 hPa Calm     69% 0 mm
06:09 2.6 °C -2.4 °C 1018.8 hPa Calm     70% 0 mm
06:14 2.5 °C -2.2 °C 1018.8 hPa Calm   1.6 km/h 71% 0 mm
06:19 2.6 °C -2.2 °C 1018.8 hPa Calm   1.6 km/h 71% 0 mm
06:24 2.7 °C -2.2 °C 1018.8 hPa Calm   3.2 km/h 70% 0 mm
06:29 3.1 °C -2.3 °C 1018.8 hPa Calm   4.8 km/h 68% 0 mm
06:34 3.4 °C -2.2 °C 1018.8 hPa NNE 1.6 km/h 6.4 km/h 67% 0 mm
06:39 3.8 °C -2.2 °C 1018.8 hPa Calm   8 km/h 65% 0 mm
06:44 4 °C -2.2 °C 1018.8 hPa Calm   8 km/h 64% 0 mm
06:49 4.2 °C -2.2 °C 1019.2 hPa Calm   6.4 km/h 63% 0 mm
06:54 4.4 °C -2.2 °C 1019.2 hPa ENE 1.6 km/h 6.4 km/h 62% 0 mm
06:59 4.7 °C -2 °C 1019.2 hPa NE 3.2 km/h 8 km/h 62% 0 mm
07:04 4.8 °C -1.9 °C 1019.2 hPa Calm   8 km/h 62% 0 mm
07:09 5 °C -1.7 °C 1019.2 hPa North 1.6 km/h 12.9 km/h 62% 0 mm
07:14 5.3 °C -1.6 °C 1019.2 hPa NNE 1.6 km/h 12.9 km/h 61% 0 mm
07:20 5.7 °C -1 °C 1019.2 hPa Calm   8 km/h 62% 0 mm
07:24 6.2 °C -1.3 °C 1019.2 hPa NNE 1.6 km/h 8 km/h 59% 0 mm
07:29 6.6 °C -1.1 °C 1019.2 hPa Calm   8 km/h 58% 0 mm
07:34 7 °C -0.7 °C 1019.2 hPa Calm   8 km/h 58% 0 mm
07:40 7.4 °C -0.8 °C 1019.2 hPa NNE 3.2 km/h 9.7 km/h 56% 0 mm
07:49 7.9 °C -0.6 °C 1019.2 hPa North 1.6 km/h 8 km/h 55% 0 mm
07:54 8.1 °C 0.3 °C 1019.2 hPa Calm   9.7 km/h 58% 0 mm
07:59 8.3 °C -0.7 °C 1019.2 hPa NNE 1.6 km/h 12.9 km/h 53% 0 mm
08:04 8.5 °C 0 °C 1019.2 hPa Calm   12.9 km/h 55% 0 mm
08:09 8.8 °C 0.5 °C 1019.2 hPa North 1.6 km/h 9.7 km/h 56% 0 mm
08:14 8.9 °C 0.4 °C 1019.2 hPa Calm   9.7 km/h 55% 0 mm
08:19 9.3 °C 0.4 °C 1019.2 hPa Calm   9.7 km/h 54% 0 mm
08:24 9.3 °C 0 °C 1019.2 hPa North 1.6 km/h 9.7 km/h 52% 0 mm
08:29 9.3 °C 0.2 °C 1019.2 hPa NNW 3.2 km/h 8 km/h 53% 0 mm
08:34 9.2 °C -0.1 °C 1019.2 hPa NNW 3.2 km/h 9.7 km/h 52% 0 mm
08:39 9.4 °C 0.8 °C 1019.2 hPa NNW 1.6 km/h 9.7 km/h 55% 0 mm
08:45 9.7 °C 0.3 °C 1019.2 hPa NW 1.6 km/h 9.7 km/h 52% 0 mm
08:49 9.9 °C 0.6 °C 1019.2 hPa North 1.6 km/h 9.7 km/h 52% 0 mm
08:54 10.1 °C 0.9 °C 1019.2 hPa North 3.2 km/h 9.7 km/h 53% 0 mm
08:59 10.3 °C 0.8 °C 1019.2 hPa North 1.6 km/h 9.7 km/h 52% 0 mm
09:04 10.4 °C 0.9 °C 1019.2 hPa North 3.2 km/h 9.7 km/h 52% 0 mm
09:09 10.6 °C 1.6 °C 1019.2 hPa NNW 1.6 km/h 9.7 km/h 54% 0 mm
09:14 10.7 °C 1.3 °C 1019.2 hPa NNE 1.6 km/h 11.3 km/h 52% 0 mm
09:19 11.1 °C 1.6 °C 1019.2 hPa NNE 3.2 km/h 11.3 km/h 52% 0 mm
09:24 11.3 °C 1.3 °C 1019.2 hPa NNW 4.8 km/h 12.9 km/h 50% 0 mm
09:29 11.3 °C 1.3 °C 1019.2 hPa North 1.6 km/h 12.9 km/h 50% 0 mm
09:34 11.5 °C 1.4 °C 1019.2 hPa North 1.6 km/h 9.7 km/h 50% 0 mm
09:39 11.9 °C 2.7 °C 1019.2 hPa NNE 3.2 km/h 12.9 km/h 53% 0 mm
09:44 12.4 °C 2.3 °C 1019.2 hPa North 1.6 km/h 12.9 km/h 50% 0 mm
09:49 12.4 °C 2.3 °C 1019.2 hPa North 3.2 km/h 12.9 km/h 50% 0 mm
09:54 12.6 °C 1.8 °C 1019.2 hPa NNE 4.8 km/h 12.9 km/h 48% 0 mm
09:59 12.7 °C 2.2 °C 1019.2 hPa North 6.4 km/h 14.5 km/h 49% 0 mm
10:05 12.8 °C 2.7 °C 1019.2 hPa North 9.7 km/h 19.3 km/h 50% 0 mm
10:14 12.8 °C 2.7 °C 1018.8 hPa NW 8 km/h 17.7 km/h 50% 0 mm
10:19 12.8 °C 2.7 °C 1019.2 hPa NNW 3.2 km/h 16.1 km/h 50% 0 mm
10:24 13.2 °C 2.7 °C 1019.2 hPa North 3.2 km/h 12.9 km/h 49% 0 mm
10:29 13.3 °C 2.6 °C 1019.2 hPa NNW 6.4 km/h 12.9 km/h 48% 0 mm
10:34 13.4 °C 3.2 °C 1018.8 hPa NNW 4.8 km/h 14.5 km/h 50% 0 mm
10:40 13.4 °C 2.7 °C 1018.8 hPa NNW 8 km/h 14.5 km/h 48% 0 mm
10:50 13.9 °C 3.7 °C 1018.8 hPa NNW 6.4 km/h 19.3 km/h 50% 0 mm
10:59 13.9 °C 3.9 °C 1018.8 hPa North 6.4 km/h 20.9 km/h 51% 0 mm
11:04 14.1 °C 2.9 °C 1018.8 hPa NNW 4.8 km/h 20.9 km/h 47% 0 mm
11:09 14.1 °C 4.1 °C 1018.8 hPa North 6.4 km/h 16.1 km/h 51% 0 mm
11:14 14.3 °C 4.1 °C 1018.8 hPa NNW 4.8 km/h 14.5 km/h 50% 0 mm
11:19 14.3 °C 4 °C 1018.8 hPa NNW 8 km/h 17.7 km/h 50% 0 mm
11:24 14.4 °C 3.9 °C 1018.8 hPa North 4.8 km/h 17.7 km/h 49% 0 mm
11:29 13.9 °C 3.7 °C 1018.5 hPa NW 9.7 km/h 20.9 km/h 50% 0 mm
11:35 13.8 °C 4.4 °C 1018.5 hPa NNW 9.7 km/h 24.1 km/h 53% 0 mm
11:44 13.8 °C 3.6 °C 1018.5 hPa NW 16.1 km/h 24.1 km/h 50% 0 mm
11:49 13.8 °C 4.6 °C 1018.5 hPa North 8 km/h 24.1 km/h 54% 0 mm
11:54 14 °C 4 °C 1018.5 hPa NNW 9.7 km/h 22.5 km/h 51% 0 mm
11:59 14.1 °C 4.3 °C 1018.2 hPa NNW 9.7 km/h 22.5 km/h 52% 0 mm
12:04 14.1 °C 4.3 °C 1018.2 hPa North 4.8 km/h 20.9 km/h 52% 0 mm
12:09 14.6 °C 4.8 °C 1018.2 hPa North 6.4 km/h 20.9 km/h 52% 0 mm
12:14 15 °C 5.2 °C 1018.2 hPa NW 9.7 km/h 19.3 km/h 52% 0 mm
12:19 15 °C 5.2 °C 1018.2 hPa NNW 12.9 km/h 22.5 km/h 52% 0 mm
12:24 15 °C 4.7 °C 1018.2 hPa NNW 9.7 km/h 22.5 km/h 50% 0 mm
12:29 15 °C 5.8 °C 1017.8 hPa NNE 6.4 km/h 22.5 km/h 54% 0 mm
12:35 15.6 °C 5.2 °C 1017.8 hPa NNW 9.7 km/h 19.3 km/h 50% 0 mm
12:44 15.4 °C 6.2 °C 1018.2 hPa North 8 km/h 22.5 km/h 54% 0 mm
12:49 15.7 °C 6.7 °C 1017.8 hPa NNW 6.4 km/h 17.7 km/h 55% 0 mm
12:54 15.8 °C 6.5 °C 1017.8 hPa NNW 11.3 km/h 20.9 km/h 54% 0 mm
12:59 15.4 °C 5.3 °C 1018.2 hPa NW 16.1 km/h 25.7 km/h 51% 0 mm
13:04 15.2 °C 5.7 °C 1017.8 hPa NNW 9.7 km/h 25.7 km/h 53% 0 mm
13:10 15.6 °C 6 °C 1017.8 hPa NNW 8 km/h 24.1 km/h 53% 0 mm
13:19 15.6 °C 5.2 °C 1017.8 hPa NNW 16.1 km/h 29 km/h 50% 0 mm
13:24 15.6 °C 5.8 °C 1017.8 hPa North 9.7 km/h 29 km/h 52% 0 mm
13:29 15.8 °C 6 °C 1017.8 hPa NNW 12.9 km/h 30.6 km/h 52% 0 mm
13:34 15.9 °C 5.8 °C 1017.8 hPa North 9.7 km/h 30.6 km/h 51% 0 mm
13:39 16 °C 6.2 °C 1017.8 hPa NNW 14.5 km/h 22.5 km/h 52% 0 mm
13:44 16 °C 5.9 °C 1017.8 hPa North 11.3 km/h 24.1 km/h 51% 0 mm
13:49 16.2 °C 6.3 °C 1017.8 hPa North 9.7 km/h 24.1 km/h 52% 0 mm
13:54 16.5 °C 5.8 °C 1017.8 hPa North 6.4 km/h 20.9 km/h 49% 0 mm
13:59 16.6 °C 6.9 °C 1017.8 hPa North 9.7 km/h 29 km/h 53% 0 mm
14:04 16.8 °C 6.9 °C 1017.8 hPa NNW 11.3 km/h 29 km/h 52% 0 mm
14:09 16.5 °C 7.2 °C 1017.8 hPa NNW 12.9 km/h 25.7 km/h 54% 0 mm
14:14 16.7 °C 6.2 °C 1017.8 hPa NNW 12.9 km/h 25.7 km/h 50% 0 mm
14:19 16.9 °C 6.4 °C 1017.8 hPa North 9.7 km/h 25.7 km/h 50% 0 mm
14:24 16.9 °C 6.4 °C 1017.8 hPa NNW 11.3 km/h 25.7 km/h 50% 0 mm
14:29 17.1 °C 6.9 °C 1017.8 hPa NNW 16.1 km/h 32.2 km/h 51% 0 mm
14:34 17.2 °C 6.7 °C 1017.8 hPa NNW 9.7 km/h 32.2 km/h 50% 0 mm
14:39 16.8 °C 6.3 °C 1017.8 hPa NNW 16.1 km/h 33.8 km/h 50% 0 mm
14:44 16.9 °C 7 °C 1017.8 hPa NNE 8 km/h 33.8 km/h 52% 0 mm
14:49 17.6 °C 6.4 °C 1017.8 hPa NNW 12.9 km/h 25.7 km/h 48% 0 mm
14:54 17.8 °C 7.5 °C 1017.8 hPa North 8 km/h 25.7 km/h 51% 0 mm
14:59 17.8 °C 7.3 °C 1017.8 hPa NNW 8 km/h 25.7 km/h 50% 0 mm
15:04 17.8 °C 6.4 °C 1017.8 hPa NNW 9.7 km/h 25.7 km/h 47% 0 mm
15:09 17.7 °C 6.6 °C 1017.8 hPa North 11.3 km/h 24.1 km/h 48% 0 mm
15:14 17.8 °C 7 °C 1017.5 hPa North 9.7 km/h 22.5 km/h 49% 0 mm
15:19 17.9 °C 7.1 °C 1017.8 hPa NNE 9.7 km/h 22.5 km/h 49% 0 mm
15:24 17.8 °C 7.5 °C 1017.5 hPa NNW 6.4 km/h 22.5 km/h 51% 0 mm
15:29 17.6 °C 7.1 °C 1017.5 hPa North 11.3 km/h 20.9 km/h 50% 0 mm
15:34 17.8 °C 7.3 °C 1017.5 hPa North 11.3 km/h 24.1 km/h 50% 0 mm
15:39 18.1 °C 7.8 °C 1017.5 hPa NNW 9.7 km/h 24.1 km/h 51% 0 mm
15:44 18.2 °C 7.3 °C 1017.5 hPa North 8 km/h 24.1 km/h 49% 0 mm
15:49 18.1 °C 7.8 °C 1017.5 hPa North 8 km/h 19.3 km/h 51% 0 mm
15:54 18.2 °C 7.6 °C 1017.5 hPa NNW 6.4 km/h 19.3 km/h 50% 0 mm
15:59 18.5 °C 6.3 °C 1017.5 hPa NNE 14.5 km/h 22.5 km/h 45% 0 mm
16:04 18.7 °C 7.4 °C 1017.5 hPa North 9.7 km/h 22.5 km/h 48% 0 mm
16:09 18.8 °C 7 °C 1017.5 hPa NNE 8 km/h 22.5 km/h 46% 0 mm
16:14 18.3 °C 6.8 °C 1017.5 hPa North 8 km/h 22.5 km/h 47% 0 mm
16:19 18.3 °C 6.8 °C 1017.5 hPa North 8 km/h 25.7 km/h 47% 0 mm
16:24 18.4 °C 6.3 °C 1017.5 hPa North 11.3 km/h 27.4 km/h 45% 0 mm
16:29 18.1 °C 5.9 °C 1017.5 hPa NNE 9.7 km/h 27.4 km/h 45% 0 mm
16:34 17.7 °C 6.9 °C 1017.5 hPa North 6.4 km/h 25.7 km/h 49% 0 mm
16:39 17.4 °C 6.6 °C 1017.5 hPa NE 3.2 km/h 20.9 km/h 49% 0 mm
16:44 17.4 °C 5.9 °C 1017.5 hPa NNE 4.8 km/h 20.9 km/h 47% 0 mm
16:49 17.3 °C 6.2 °C 1017.5 hPa NNE 4.8 km/h 17.7 km/h 48% 0 mm
16:54 17.2 °C 6.7 °C 1017.5 hPa NNE 4.8 km/h 19.3 km/h 50% 0 mm
16:59 17.3 °C 6.2 °C 1017.5 hPa NNE 6.4 km/h 19.3 km/h 48% 0 mm
17:04 17.3 °C 6.4 °C 1017.5 hPa NNE 3.2 km/h 19.3 km/h 49% 0 mm
17:09 17.5 °C 6.4 °C 1017.5 hPa NNE 8 km/h 17.7 km/h 48% 0 mm
17:14 17.5 °C 5.4 °C 1017.5 hPa NNE 9.7 km/h 25.7 km/h 45% 0 mm
17:19 17.4 °C 5.7 °C 1017.5 hPa NNE 4.8 km/h 25.7 km/h 46% 0 mm
17:24 17.6 °C 5.2 °C 1017.5 hPa NNE 11.3 km/h 20.9 km/h 44% 0 mm
17:29 17.6 °C 5.8 °C 1017.5 hPa NE 3.2 km/h 20.9 km/h 46% 0 mm
17:35 17.7 °C 5.3 °C 1017.5 hPa NNE 8 km/h 20.9 km/h 44% 0 mm
17:39 17.7 °C 5.7 °C 1017.5 hPa NE 8 km/h 22.5 km/h 45% 0 mm
17:44 17.8 °C 5.4 °C 1017.5 hPa NE 9.7 km/h 22.5 km/h 44% 0 mm
17:49 18 °C 5.2 °C 1017.5 hPa NNE 8 km/h 22.5 km/h 43% 0 mm
17:54 17.8 °C 5.1 °C 1017.5 hPa NE 6.4 km/h 22.5 km/h 43% 0 mm
17:59 17.6 °C 5.2 °C 1017.5 hPa NNE 11.3 km/h 22.5 km/h 44% 0 mm
18:04 17.6 °C 5.6 °C 1017.5 hPa NE 4.8 km/h 20.9 km/h 45% 0 mm
18:09 17.9 °C 5.8 °C 1017.5 hPa NE 6.4 km/h 17.7 km/h 45% 0 mm
18:14 18.1 °C 6 °C 1017.5 hPa NNE 4.8 km/h 17.7 km/h 45% 0 mm
18:19 18 °C 5.2 °C 1017.5 hPa NE 9.7 km/h 22.5 km/h 43% 0 mm
18:24 17.7 °C 5.3 °C 1017.5 hPa ENE 8 km/h 22.5 km/h 44% 0 mm
18:29 17.5 °C 5.4 °C 1017.5 hPa NNE 9.7 km/h 29 km/h 45% 0 mm
18:34 17.4 °C 5 °C 1017.5 hPa NE 8 km/h 29 km/h 44% 0 mm
18:40 17.3 °C 4.9 °C 1017.8 hPa NE 4.8 km/h 19.3 km/h 44% 0 mm
18:49 17.1 °C 4.8 °C 1017.8 hPa NE 8 km/h 20.9 km/h 44% 0 mm
18:54 16.9 °C 4.9 °C 1017.8 hPa NE 3.2 km/h 20.9 km/h 45% 0 mm
18:59 16.5 °C 4.8 °C 1017.8 hPa North 1.6 km/h 20.9 km/h 46% 0 mm
19:04 16.3 °C 4.9 °C 1017.8 hPa NE 6.4 km/h 17.7 km/h 47% 0 mm
19:09 16.3 °C 4.9 °C 1017.8 hPa ENE 3.2 km/h 17.7 km/h 47% 0 mm
19:14 16.2 °C 5.2 °C 1018.2 hPa NE 3.2 km/h 14.5 km/h 48% 0 mm
19:19 16.1 °C 4.8 °C 1018.2 hPa NE 3.2 km/h 14.5 km/h 47% 0 mm
19:24 15.8 °C 4.6 °C 1018.2 hPa East 8 km/h 17.7 km/h 47% 0 mm
19:29 15.7 °C 4.7 °C 1018.2 hPa NE 6.4 km/h 17.7 km/h 48% 0 mm
19:34 15.7 °C 5 °C 1018.2 hPa NE 4.8 km/h 14.5 km/h 49% 0 mm
19:39 15.7 °C 4.7 °C 1018.2 hPa NE 4.8 km/h 14.5 km/h 48% 0 mm
19:44 15.4 °C 4.8 °C 1018.2 hPa ENE 3.2 km/h 16.1 km/h 49% 0 mm
19:49 15.3 °C 4.9 °C 1018.2 hPa NNE 4.8 km/h 16.1 km/h 50% 0 mm
19:54 15 °C 4.7 °C 1018.2 hPa NNE 1.6 km/h 12.9 km/h 50% 0 mm
19:59 14.9 °C 4.8 °C 1018.2 hPa NNE 3.2 km/h 11.3 km/h 51% 0 mm
20:04 14.7 °C 4.9 °C 1017.8 hPa NNE 4.8 km/h 17.7 km/h 52% 0 mm
20:09 14.5 °C 4.8 °C 1018.2 hPa NNE 1.6 km/h 17.7 km/h 52% 0 mm
20:14 14.3 °C 4.8 °C 1018.2 hPa NE 3.2 km/h 16.1 km/h 53% 0 mm
20:19 14.1 °C 4.7 °C 1018.2 hPa NNE 4.8 km/h 16.1 km/h 53% 0 mm
20:24 13.9 °C 4.8 °C 1018.2 hPa NE 6.4 km/h 14.5 km/h 54% 0 mm
20:30 13.8 °C 4.7 °C 1018.2 hPa Calm   11.3 km/h 54% 0 mm
20:35 13.6 °C 4.7 °C 1018.2 hPa Calm   6.4 km/h 55% 0 mm
20:39 13.4 °C 4.8 °C 1018.2 hPa NE 1.6 km/h 8 km/h 56% 0 mm
20:44 13.3 °C 4.7 °C 1018.2 hPa NNE 3.2 km/h 12.9 km/h 56% 0 mm
20:49 13.2 °C 4.8 °C 1018.5 hPa NNE 3.2 km/h 12.9 km/h 57% 0 mm
20:54 12.9 °C 4.6 °C 1018.5 hPa NNE 3.2 km/h 8 km/h 57% 0 mm
20:59 12.7 °C 4.7 °C 1018.5 hPa NE 1.6 km/h 11.3 km/h 58% 0 mm
21:04 12.6 °C 4.8 °C 1018.5 hPa NNE 1.6 km/h 11.3 km/h 59% 0 mm
21:09 12.3 °C 4.6 °C 1018.5 hPa NNE 1.6 km/h 11.3 km/h 59% 0 mm
21:14 12.2 °C 4.7 °C 1018.5 hPa NE 1.6 km/h 11.3 km/h 60% 0 mm
21:19 12.1 °C 4.8 °C 1018.5 hPa Calm   4.8 km/h 61% 0 mm
21:24 11.8 °C 4.6 °C 1018.8 hPa Calm   4.8 km/h 61% 0 mm
21:29 11.6 °C 4.6 °C 1018.8 hPa Calm   3.2 km/h 62% 0 mm
21:34 11.3 °C 4.6 °C 1019.2 hPa Calm   3.2 km/h 63% 0 mm
21:39 11.2 °C 4.6 °C 1018.8 hPa NE 1.6 km/h 3.2 km/h 64% 0 mm
21:44 10.9 °C 4.6 °C 1019.2 hPa NE 1.6 km/h 4.8 km/h 65% 0 mm
21:49 10.7 °C 4.8 °C 1019.2 hPa Calm   4.8 km/h 67% 0 mm
21:54 10.4 °C 4.5 °C 1019.2 hPa Calm   3.2 km/h 67% 0 mm
21:59 10.3 °C 4.6 °C 1018.8 hPa Calm   6.4 km/h 68% 0 mm
22:04 10.3 °C 4.9 °C 1018.8 hPa Calm   6.4 km/h 69% 0 mm
22:09 10.3 °C 4.8 °C 1019.2 hPa Calm   4.8 km/h 69% 0 mm
22:14 10.2 °C 4.7 °C 1019.2 hPa Calm   4.8 km/h 69% 0 mm
22:19 10.2 °C 4.6 °C 1019.2 hPa Calm   4.8 km/h 68% 0 mm
22:24 10.2 °C 4.7 °C 1019.2 hPa NE 1.6 km/h 3.2 km/h 69% 0 mm
22:29 10.2 °C 4.7 °C 1019.2 hPa NE 1.6 km/h 4.8 km/h 69% 0 mm
22:35 10.2 °C 4.7 °C 1019.2 hPa NE 3.2 km/h 8 km/h 69% 0 mm
22:39 10.3 °C 4.7 °C 1019.2 hPa ENE 1.6 km/h 11.3 km/h 68% 0 mm
22:44 10.6 °C 4.9 °C 1019.2 hPa East 1.6 km/h 11.3 km/h 68% 0 mm
22:49 10.7 °C 5.1 °C 1019.2 hPa East 3.2 km/h 8 km/h 68% 0 mm
22:55 10.7 °C 4.8 °C 1019.2 hPa NNE 3.2 km/h 8 km/h 67% 0 mm
22:59 10.6 °C 4.7 °C 1019.2 hPa NNE 3.2 km/h 9.7 km/h 67% 0 mm
23:04 10.5 °C 4.8 °C 1019.2 hPa NNE 1.6 km/h 9.7 km/h 68% 0 mm
23:09 10.3 °C 4.9 °C 1019.2 hPa ENE 3.2 km/h 9.7 km/h 69% 0 mm
23:14 10.4 °C 4.9 °C 1019.2 hPa NE 1.6 km/h 9.7 km/h 69% 0 mm
23:19 10.4 °C 4.7 °C 1019.2 hPa Calm   11.3 km/h 68% 0 mm
23:24 10.3 °C 4.8 °C 1019.2 hPa North 1.6 km/h 11.3 km/h 69% 0 mm
23:29 10.1 °C 4.7 °C 1019.2 hPa NE 1.6 km/h 6.4 km/h 69% 0 mm
23:34 9.8 °C 4.6 °C 1019.2 hPa Calm   4.8 km/h 70% 0 mm
23:39 9.6 °C 4.6 °C 1019.2 hPa Calm   1.6 km/h 71% 0 mm
23:44 9.6 °C 4.6 °C 1019.5 hPa NW 3.2 km/h 6.4 km/h 71% 0 mm
23:49 9.4 °C 4.7 °C 1019.5 hPa Calm   6.4 km/h 72% 0 mm
23:54 9.8 °C 4.8 °C 1019.5 hPa NNE 4.8 km/h 12.9 km/h 71% 0 mm
23:59 10 °C 4.8 °C 1019.5 hPa Calm   12.9 km/h 70% 0 mm
Westford Weather
Compliments of Weather Underground

 
 
Current Radar Loop:

Copyright © WestfordWeather.net 2007-2014. All rights reserved.